Time;durP1;ratioP1;P1;durP2;ratioP2;P2;SDS_P1;SDS_P2;PMS_P1;PMS_P2;Temp;Humidity;BMP_temperature;BMP_pressure;BME280_temperature;BME280_humidity;BME280_pressure;Samples;Min_cycle;Max_cycle;Signal;HPM_P1;HPM_P2
2022/09/23 00:01:45;;;;;;;5.37;3.72;;;;;;;;;;1713670;82;20994;-68
2022/09/23 00:04:11;;;;;;;5.42;3.83;;;;;;;;;;1724653;82;21047;-68
2022/09/23 00:06:38;;;;;;;6.45;4.60;;;;;;;;;;1721280;82;21035;-68
2022/09/23 00:09:04;;;;;;;5.92;3.90;;;;;;;;;;1717860;82;21541;-67
2022/09/23 00:11:32;;;;;;;8.10;3.58;;;;;;;;;;1719751;82;21001;-68
2022/09/23 00:13:59;;;;;;;8.13;4.50;;;;;;;;;;1718760;82;21104;-68
2022/09/23 00:16:27;;;;;;;7.12;4.65;;;;;;;;;;1717136;82;21045;-68
2022/09/23 00:18:55;;;;;;;7.12;4.45;;;;;;;;;;1719250;82;21041;-69
2022/09/23 00:21:21;;;;;;;8.78;4.30;;;;;;;;;;1709791;82;21086;-68
2022/09/23 00:23:47;;;;;;;7.10;4.00;;;;;;;;;;1725825;82;21022;-68
2022/09/23 00:26:15;;;;;;;6.00;3.85;;;;;;;;;;1721960;82;21061;-69
2022/09/23 00:28:41;;;;;;;5.50;3.92;;;;;;;;;;1721867;82;21490;-69
2022/09/23 00:31:14;;;;;;;5.90;3.77;;;;;;;;;;1722914;82;21064;-68
2022/09/23 00:33:40;;;;;;;6.70;4.12;;;;;;;;;;1723069;82;21014;-69
2022/09/23 00:36:18;;;;;;;6.37;4.00;;;;;;;;;;1721581;82;21523;-69
2022/09/23 00:38:44;;;;;;;6.28;4.12;;;;;;;;;;1714810;82;21028;-69
2022/09/23 00:41:10;;;;;;;6.37;4.33;;;;;;;;;;1721161;82;21529;-68
2022/09/23 00:43:38;;;;;;;5.55;4.05;;;;;;;;;;1721047;82;21104;-69
2022/09/23 00:46:05;;;;;;;5.28;3.83;;;;;;;;;;1717248;83;21030;-70
2022/09/23 00:48:31;;;;;;;7.20;4.60;;;;;;;;;;1721946;82;20987;-69
2022/09/23 00:50:58;;;;;;;5.40;3.60;;;;;;;;;;1722710;82;21004;-68
2022/09/23 00:53:26;;;;;;;6.28;3.92;;;;;;;;;;1721921;82;21041;-68
2022/09/23 00:56:00;;;;;;;5.28;3.67;;;;;;;;;;1718842;82;21106;-68
2022/09/23 00:58:30;;;;;;;7.22;4.42;;;;;;;;;;1716251;82;21050;-68
2022/09/23 01:03:59;;;;;;;6.92;4.20;;;;;;;;;;1731858;80;21181;-70
2022/09/23 01:06:25;;;;;;;6.12;4.20;;;;;;;;;;1780002;80;21639;-69
2022/09/23 01:08:52;;;;;;;7.17;4.33;;;;;;;;;;1770315;80;20967;-70
2022/09/23 01:11:23;;;;;;;5.78;4.15;;;;;;;;;;1780048;80;21052;-70
2022/09/23 01:13:51;;;;;;;5.53;3.33;;;;;;;;;;1784061;80;21534;-70
2022/09/23 01:16:19;;;;;;;7.90;3.98;;;;;;;;;;1784188;80;21596;-70
2022/09/23 01:18:54;;;;;;;4.92;3.20;;;;;;;;;;1781136;80;21463;-68
2022/09/23 01:21:39;;;;;;;4.97;3.98;;;;;;;;;;1775043;80;21537;-70
2022/09/23 01:24:13;;;;;;;5.95;4.20;;;;;;;;;;1789098;80;21011;-68
2022/09/23 01:26:57;;;;;;;5.95;3.98;;;;;;;;;;1790024;80;21093;-70
2022/09/23 01:29:44;;;;;;;7.78;4.12;;;;;;;;;;1780495;80;21030;-70
2022/09/23 01:32:25;;;;;;;7.85;4.47;;;;;;;;;;1785637;80;21046;-70
2022/09/23 01:35:02;;;;;;;4.85;3.37;;;;;;;;;;1775777;80;21030;-70
2022/09/23 01:37:34;;;;;;;5.17;3.92;;;;;;;;;;1775058;80;21040;-71
2022/09/23 01:40:02;;;;;;;5.90;3.72;;;;;;;;;;1777560;80;21038;-70
2022/09/23 01:42:39;;;;;;;7.97;3.50;;;;;;;;;;1780148;80;21011;-70
2022/09/23 01:45:07;;;;;;;6.75;4.40;;;;;;;;;;1791320;80;21576;-69
2022/09/23 01:47:36;;;;;;;4.47;3.33;;;;;;;;;;1774910;80;21078;-70
2022/09/23 01:50:54;;;;;;;5.67;3.70;;;;;;;;;;1749096;81;20982;-70
2022/09/23 01:52:36;;;;;;;5.03;3.62;;;;;;;;;;1727938;82;21045;-70
2022/09/23 01:55:04;;;;;;;6.20;4.50;;;;;;;;;;1732954;82;21451;-70
2022/09/23 01:57:32;;;;;;;6.35;4.22;;;;;;;;;;1741593;82;21044;-70
2022/09/23 02:00:00;;;;;;;6.75;3.87;;;;;;;;;;1732701;82;21620;-70
2022/09/23 02:02:28;;;;;;;7.15;3.80;;;;;;;;;;1730833;82;21049;-70
2022/09/23 02:04:56;;;;;;;5.00;3.67;;;;;;;;;;1686876;83;21117;-69
2022/09/23 02:07:24;;;;;;;5.28;4.33;;;;;;;;;;1741016;81;21536;-70
2022/09/23 02:09:52;;;;;;;4.37;3.33;;;;;;;;;;1749877;81;21036;-68
2022/09/23 02:12:19;;;;;;;6.10;4.05;;;;;;;;;;1737622;81;21044;-69
2022/09/23 02:14:49;;;;;;;6.85;4.12;;;;;;;;;;1745437;81;21026;-69
2022/09/23 02:17:17;;;;;;;5.92;3.72;;;;;;;;;;1750799;81;21093;-69
2022/09/23 02:19:46;;;;;;;5.62;3.45;;;;;;;;;;1756372;81;21097;-69
2022/09/23 02:22:17;;;;;;;6.65;3.80;;;;;;;;;;1750731;81;21048;-69
2022/09/23 02:24:43;;;;;;;4.62;3.60;;;;;;;;;;1720394;81;21010;-69
2022/09/23 02:27:12;;;;;;;5.10;3.58;;;;;;;;;;1748260;81;21017;-69
2022/09/23 02:29:40;;;;;;;6.85;4.22;;;;;;;;;;1752413;81;20996;-69
2022/09/23 02:32:12;;;;;;;5.97;4.25;;;;;;;;;;1708735;81;21591;-69
2022/09/23 02:34:44;;;;;;;5.78;4.05;;;;;;;;;;1747108;81;21096;-68
2022/09/23 02:37:18;;;;;;;5.40;4.12;;;;;;;;;;1749403;81;20978;-69
2022/09/23 02:39:55;;;;;;;5.90;3.90;;;;;;;;;;1742344;81;21549;-68
2022/09/23 02:42:22;;;;;;;5.03;3.55;;;;;;;;;;1742414;81;21492;-69
2022/09/23 02:44:49;;;;;;;5.28;3.80;;;;;;;;;;1749597;81;21036;-69
2022/09/23 02:47:16;;;;;;;4.70;3.50;;;;;;;;;;1750963;81;21045;-69
2022/09/23 02:49:42;;;;;;;5.85;3.95;;;;;;;;;;1748439;81;21005;-69
2022/09/23 02:52:10;;;;;;;4.85;3.50;;;;;;;;;;1752067;81;21002;-69
2022/09/23 02:54:36;;;;;;;8.75;3.58;;;;;;;;;;1749134;82;21009;-69
2022/09/23 02:57:04;;;;;;;5.87;3.58;;;;;;;;;;1750738;81;21024;-70
2022/09/23 02:59:30;;;;;;;6.42;4.12;;;;;;;;;;1746655;81;21041;-68
2022/09/23 03:02:15;;;;;;;5.72;3.90;;;;;;;;;;1750076;81;21017;-69
2022/09/23 03:04:46;;;;;;;6.15;3.87;;;;;;;;;;1748685;81;21053;-69
2022/09/23 03:07:20;;;;;;;5.75;3.75;;;;;;;;;;1747927;81;21049;-69
2022/09/23 03:09:48;;;;;;;5.50;4.05;;;;;;;;;;1749307;81;22144;-69
2022/09/23 03:12:18;;;;;;;4.03;3.30;;;;;;;;;;1748979;81;21044;-69
2022/09/23 03:14:56;;;;;;;6.22;4.00;;;;;;;;;;1752660;81;21033;-69
2022/09/23 03:17:24;;;;;;;7.20;4.08;;;;;;;;;;1754402;81;21041;-70
2022/09/23 03:20:01;;;;;;;5.97;4.00;;;;;;;;;;1754050;81;21517;-69
2022/09/23 03:22:29;;;;;;;5.42;3.52;;;;;;;;;;1738836;81;21543;-69
2022/09/23 03:24:57;;;;;;;5.00;3.87;;;;;;;;;;1750239;81;21566;-69
2022/09/23 03:27:24;;;;;;;4.65;3.72;;;;;;;;;;1748819;81;21527;-69
2022/09/23 03:29:51;;;;;;;4.70;3.30;;;;;;;;;;1754929;81;21044;-69
2022/09/23 03:32:18;;;;;;;5.00;3.17;;;;;;;;;;1743240;81;21090;-69
2022/09/23 03:37:55;;;;;;;5.30;3.40;;;;;;;;;;1801425;78;22509;-70
2022/09/23 03:40:24;;;;;;;4.12;3.05;;;;;;;;;;1758956;80;21017;-69
2022/09/23 03:42:50;;;;;;;7.12;3.50;;;;;;;;;;1779518;80;20972;-69
2022/09/23 03:45:17;;;;;;;5.28;3.47;;;;;;;;;;1765294;80;21630;-68
2022/09/23 03:47:44;;;;;;;5.42;3.70;;;;;;;;;;1770744;80;21008;-69
2022/09/23 03:50:12;;;;;;;6.15;3.62;;;;;;;;;;1767332;80;21056;-69
2022/09/23 03:52:38;;;;;;;5.60;3.20;;;;;;;;;;1766688;79;20996;-68
2022/09/23 03:55:05;;;;;;;6.33;3.35;;;;;;;;;;1761092;80;22107;-69
2022/09/23 03:57:32;;;;;;;6.15;3.90;;;;;;;;;;1760936;80;20985;-69
2022/09/23 03:59:58;;;;;;;4.60;3.60;;;;;;;;;;1757216;80;21553;-69
2022/09/23 04:02:25;;;;;;;6.17;3.87;;;;;;;;;;1758741;80;21336;-69
2022/09/23 04:04:52;;;;;;;6.45;4.20;;;;;;;;;;1738193;82;22301;-70
2022/09/23 04:07:18;;;;;;;6.97;4.50;;;;;;;;;;1740630;82;20994;-70
2022/09/23 04:09:45;;;;;;;5.53;3.35;;;;;;;;;;1737070;82;21029;-70
2022/09/23 04:12:12;;;;;;;5.45;3.70;;;;;;;;;;1743267;82;21036;-70
2022/09/23 04:14:38;;;;;;;6.15;4.00;;;;;;;;;;1737950;82;21079;-70
2022/09/23 04:17:04;;;;;;;7.25;4.42;;;;;;;;;;1737958;82;21013;-70
2022/09/23 04:19:30;;;;;;;6.85;4.30;;;;;;;;;;1744658;82;21069;-71
2022/09/23 04:21:57;;;;;;;5.67;4.17;;;;;;;;;;1737395;82;21048;-69
2022/09/23 04:24:23;;;;;;;7.50;3.77;;;;;;;;;;1739635;82;21475;-70
2022/09/23 04:26:53;;;;;;;5.47;3.80;;;;;;;;;;1741457;82;21563;-69
2022/09/23 04:29:20;;;;;;;9.63;4.30;;;;;;;;;;1743564;82;21013;-69
2022/09/23 04:31:46;;;;;;;5.00;3.37;;;;;;;;;;1745552;82;21095;-69
2022/09/23 04:34:14;;;;;;;5.42;3.70;;;;;;;;;;1749624;82;21023;-70
2022/09/23 04:36:41;;;;;;;4.83;3.62;;;;;;;;;;1743447;82;21005;-69
2022/09/23 04:39:07;;;;;;;5.28;3.90;;;;;;;;;;1731797;82;21532;-70
2022/09/23 04:41:33;;;;;;;6.65;4.35;;;;;;;;;;1739853;82;21095;-69
2022/09/23 04:44:02;;;;;;;5.33;3.95;;;;;;;;;;1733506;82;21081;-70
2022/09/23 04:46:28;;;;;;;7.05;4.50;;;;;;;;;;1731095;82;21040;-70
2022/09/23 04:48:54;;;;;;;6.67;4.50;;;;;;;;;;1729301;82;20990;-68
2022/09/23 04:51:21;;;;;;;4.90;3.30;;;;;;;;;;1730334;82;21018;-70
2022/09/23 04:53:48;;;;;;;6.22;4.47;;;;;;;;;;1726010;82;21032;-70
2022/09/23 04:56:15;;;;;;;5.53;4.05;;;;;;;;;;1722738;82;22141;-69
2022/09/23 04:58:42;;;;;;;5.85;3.87;;;;;;;;;;1725993;82;21107;-70
2022/09/23 05:01:10;;;;;;;5.90;4.10;;;;;;;;;;1723560;82;21052;-69
2022/09/23 05:03:38;;;;;;;5.20;3.98;;;;;;;;;;1726202;82;21611;-69
2022/09/23 05:06:06;;;;;;;5.55;3.90;;;;;;;;;;1726224;82;21309;-69
2022/09/23 05:08:34;;;;;;;5.90;4.20;;;;;;;;;;1724616;82;21005;-70
2022/09/23 05:11:01;;;;;;;5.78;3.98;;;;;;;;;;1727752;82;21105;-68
2022/09/23 05:13:27;;;;;;;8.10;4.17;;;;;;;;;;1725810;82;21076;-69
2022/09/23 05:15:58;;;;;;;5.05;3.37;;;;;;;;;;1724213;82;21013;-69
2022/09/23 05:18:24;;;;;;;6.53;4.40;;;;;;;;;;1721868;82;21477;-69
2022/09/23 05:20:54;;;;;;;5.90;4.08;;;;;;;;;;1727254;82;21452;-69
2022/09/23 05:23:21;;;;;;;5.45;3.37;;;;;;;;;;1729534;82;21005;-70
2022/09/23 05:25:48;;;;;;;4.53;3.33;;;;;;;;;;1727045;82;21001;-70
2022/09/23 05:28:19;;;;;;;5.22;3.67;;;;;;;;;;1724505;82;21037;-69
2022/09/23 05:30:43;;;;;;;5.67;4.12;;;;;;;;;;1725831;82;21033;-70
2022/09/23 05:33:10;;;;;;;5.05;3.58;;;;;;;;;;1717761;82;21061;-69
2022/09/23 05:35:36;;;;;;;7.35;4.05;;;;;;;;;;1714076;82;21579;-71
2022/09/23 05:38:02;;;;;;;5.03;4.10;;;;;;;;;;1741335;81;21052;-70
2022/09/23 05:40:28;;;;;;;6.05;4.12;;;;;;;;;;1731284;82;21024;-70
2022/09/23 05:42:55;;;;;;;7.10;3.87;;;;;;;;;;1735015;82;21088;-68
2022/09/23 05:45:23;;;;;;;6.25;4.10;;;;;;;;;;1736588;81;21056;-71
2022/09/23 05:47:49;;;;;;;6.08;3.85;;;;;;;;;;1731548;82;22202;-71
2022/09/23 05:50:16;;;;;;;4.87;3.40;;;;;;;;;;1734505;82;21048;-71
2022/09/23 05:52:42;;;;;;;10.00;3.70;;;;;;;;;;1730817;82;21069;-70
2022/09/23 05:55:10;;;;;;;5.58;3.90;;;;;;;;;;1733899;82;21005;-69
2022/09/23 05:57:38;;;;;;;7.55;3.90;;;;;;;;;;1732784;82;21037;-69
2022/09/23 06:00:06;;;;;;;6.05;3.67;;;;;;;;;;1733778;82;21080;-70
2022/09/23 06:02:34;;;;;;;5.97;3.95;;;;;;;;;;1729699;82;21667;-70
2022/09/23 06:05:00;;;;;;;5.83;4.05;;;;;;;;;;1731284;82;21076;-71
2022/09/23 06:07:26;;;;;;;5.50;3.83;;;;;;;;;;1734331;82;21045;-69
2022/09/23 06:09:52;;;;;;;6.10;3.70;;;;;;;;;;1733320;82;21016;-69
2022/09/23 06:12:19;;;;;;;4.90;3.35;;;;;;;;;;1732907;82;21028;-69
2022/09/23 06:14:45;;;;;;;6.25;3.50;;;;;;;;;;1734336;82;21005;-69
2022/09/23 06:17:11;;;;;;;6.03;3.83;;;;;;;;;;1732122;82;21001;-70
2022/09/23 06:19:37;;;;;;;5.28;3.85;;;;;;;;;;1731939;82;21532;-70
2022/09/23 06:22:04;;;;;;;4.55;3.50;;;;;;;;;;1734259;82;21531;-69
2022/09/23 06:24:30;;;;;;;5.30;3.55;;;;;;;;;;1729564;82;21469;-70
2022/09/23 06:26:57;;;;;;;4.87;3.70;;;;;;;;;;1731599;82;21484;-71
2022/09/23 06:29:23;;;;;;;4.85;3.50;;;;;;;;;;1732018;82;21072;-70
2022/09/23 06:31:49;;;;;;;5.12;3.67;;;;;;;;;;1736137;82;21044;-70
2022/09/23 06:34:16;;;;;;;7.00;3.33;;;;;;;;;;1734813;82;21124;-70
2022/09/23 06:36:42;;;;;;;4.53;3.30;;;;;;;;;;1730485;82;21080;-70
2022/09/23 06:39:09;;;;;;;4.08;2.90;;;;;;;;;;1734344;82;21009;-70
2022/09/23 06:41:35;;;;;;;4.22;3.35;;;;;;;;;;1733528;82;21033;-71
2022/09/23 06:44:02;;;;;;;5.17;3.40;;;;;;;;;;1732788;82;21052;-70
2022/09/23 06:46:30;;;;;;;4.30;3.15;;;;;;;;;;1733911;82;21057;-70
2022/09/23 06:48:56;;;;;;;5.35;2.87;;;;;;;;;;1730479;82;21042;-70
2022/09/23 06:51:23;;;;;;;5.00;3.37;;;;;;;;;;1733785;82;21096;-70
2022/09/23 06:53:49;;;;;;;3.87;2.90;;;;;;;;;;1731641;82;21104;-70
2022/09/23 06:56:16;;;;;;;3.83;2.70;;;;;;;;;;1736192;82;21032;-70
2022/09/23 06:58:42;;;;;;;4.20;3.00;;;;;;;;;;1727031;82;21024;-70
2022/09/23 07:01:10;;;;;;;5.95;3.20;;;;;;;;;;1733094;82;21488;-70
2022/09/23 07:03:37;;;;;;;4.78;3.20;;;;;;;;;;1740967;81;21084;-69
2022/09/23 07:06:03;;;;;;;5.58;2.98;;;;;;;;;;1742207;82;21021;-69
2022/09/23 07:08:32;;;;;;;3.60;2.72;;;;;;;;;;1719333;82;21496;-70
2022/09/23 07:10:59;;;;;;;4.83;2.90;;;;;;;;;;1739355;82;20978;-70
2022/09/23 07:13:25;;;;;;;4.28;3.30;;;;;;;;;;1730901;82;21037;-69
2022/09/23 07:15:53;;;;;;;3.98;3.00;;;;;;;;;;1736445;82;21028;-70
2022/09/23 07:18:19;;;;;;;5.30;3.20;;;;;;;;;;1732934;82;20983;-70
2022/09/23 07:20:45;;;;;;;3.98;3.10;;;;;;;;;;1728462;82;21036;-69
2022/09/23 07:23:11;;;;;;;4.65;3.50;;;;;;;;;;1731619;82;22234;-70
2022/09/23 07:25:37;;;;;;;6.10;3.83;;;;;;;;;;1733454;82;21528;-70
2022/09/23 07:28:04;;;;;;;5.78;3.80;;;;;;;;;;1730906;82;21513;-69
2022/09/23 07:30:30;;;;;;;4.85;3.20;;;;;;;;;;1736426;82;21540;-70
2022/09/23 07:32:56;;;;;;;4.03;2.90;;;;;;;;;;1732853;82;21025;-69
2022/09/23 07:35:23;;;;;;;4.33;3.20;;;;;;;;;;1731840;82;21056;-69
2022/09/23 07:37:49;;;;;;;3.80;2.80;;;;;;;;;;1733702;82;21061;-71
2022/09/23 07:40:16;;;;;;;5.17;3.47;;;;;;;;;;1732334;82;21012;-70
2022/09/23 07:42:43;;;;;;;4.65;3.25;;;;;;;;;;1735787;82;21056;-70
2022/09/23 07:45:10;;;;;;;3.98;2.85;;;;;;;;;;1729929;82;21048;-69
2022/09/23 07:47:38;;;;;;;4.15;3.20;;;;;;;;;;1742859;82;21060;-70
2022/09/23 07:50:06;;;;;;;4.28;2.90;;;;;;;;;;1743901;82;21029;-70
2022/09/23 07:52:35;;;;;;;4.30;3.10;;;;;;;;;;1738445;82;21104;-69
2022/09/23 07:55:01;;;;;;;4.75;3.20;;;;;;;;;;1743273;82;21009;-69
2022/09/23 07:57:28;;;;;;;5.05;3.37;;;;;;;;;;1737568;82;21036;-69
2022/09/23 07:59:54;;;;;;;4.95;3.52;;;;;;;;;;1732848;82;21076;-70
2022/09/23 08:02:20;;;;;;;4.35;3.10;;;;;;;;;;1742191;81;21073;-70
2022/09/23 08:04:47;;;;;;;3.75;2.65;;;;;;;;;;1727212;82;20975;-69
2022/09/23 08:07:14;;;;;;;4.45;3.12;;;;;;;;;;1733659;82;22163;-70
2022/09/23 08:09:41;;;;;;;4.90;3.17;;;;;;;;;;1732841;82;21504;-70
2022/09/23 08:12:08;;;;;;;4.75;3.40;;;;;;;;;;1727992;82;21123;-69
2022/09/23 08:14:35;;;;;;;3.95;3.00;;;;;;;;;;1739354;82;21064;-69
2022/09/23 08:17:05;;;;;;;4.20;3.05;;;;;;;;;;1733156;82;21009;-69
2022/09/23 08:19:31;;;;;;;4.17;2.90;;;;;;;;;;1735123;82;21075;-70
2022/09/23 08:21:57;;;;;;;3.10;2.30;;;;;;;;;;1732272;82;21046;-70
2022/09/23 08:24:25;;;;;;;4.03;2.47;;;;;;;;;;1731082;82;21099;-70
2022/09/23 08:26:52;;;;;;;2.50;1.77;;;;;;;;;;1735011;82;21558;-69
2022/09/23 08:29:22;;;;;;;1.60;1.50;;;;;;;;;;1733074;82;22129;-69
2022/09/23 08:31:48;;;;;;;1.72;1.62;;;;;;;;;;1731294;82;21150;-69
2022/09/23 08:34:17;;;;;;;2.42;1.60;;;;;;;;;;1732772;82;21087;-69
2022/09/23 08:36:43;;;;;;;2.35;1.80;;;;;;;;;;1733214;82;21005;-70
2022/09/23 08:39:11;;;;;;;1.72;1.40;;;;;;;;;;1737215;82;21060;-70
2022/09/23 08:41:58;;;;;;;2.35;1.57;;;;;;;;;;1737821;81;21519;-70
2022/09/23 08:44:26;;;;;;;1.52;1.42;;;;;;;;;;1739689;82;21107;-70
2022/09/23 08:47:00;;;;;;;2.80;1.80;;;;;;;;;;1728635;82;20985;-70
2022/09/23 08:49:29;;;;;;;4.87;2.20;;;;;;;;;;1736309;82;21056;-69
2022/09/23 08:51:55;;;;;;;3.20;2.33;;;;;;;;;;1738416;81;21091;-70
2022/09/23 08:54:22;;;;;;;4.08;3.00;;;;;;;;;;1739905;82;21009;-70
2022/09/23 08:56:50;;;;;;;3.95;2.90;;;;;;;;;;1740848;80;21034;-69
2022/09/23 08:59:18;;;;;;;7.12;3.22;;;;;;;;;;1735766;82;20997;-70
2022/09/23 09:01:49;;;;;;;4.60;3.45;;;;;;;;;;1739832;80;21060;-70
2022/09/23 09:04:17;;;;;;;4.58;3.15;;;;;;;;;;1737948;82;21036;-70
2022/09/23 09:06:46;;;;;;;5.50;3.58;;;;;;;;;;1736712;82;21598;-70
2022/09/23 09:09:14;;;;;;;4.80;3.00;;;;;;;;;;1739033;81;21044;-70
2022/09/23 09:11:43;;;;;;;3.52;2.33;;;;;;;;;;1738597;82;21001;-70
2022/09/23 09:14:11;;;;;;;2.92;2.27;;;;;;;;;;1736651;82;21040;-70
2022/09/23 09:16:46;;;;;;;3.30;1.98;;;;;;;;;;1735595;82;21073;-71
2022/09/23 09:19:17;;;;;;;2.90;1.90;;;;;;;;;;1737755;82;21575;-70
2022/09/23 09:21:45;;;;;;;3.15;2.10;;;;;;;;;;1736705;82;21008;-69
2022/09/23 09:24:13;;;;;;;3.62;2.10;;;;;;;;;;1739388;81;22069;-70
2022/09/23 09:26:39;;;;;;;2.58;2.10;;;;;;;;;;1735937;82;21036;-71
2022/09/23 09:29:09;;;;;;;3.37;2.37;;;;;;;;;;1736685;82;21036;-70
2022/09/23 09:31:37;;;;;;;2.70;2.00;;;;;;;;;;1738601;81;21024;-69
2022/09/23 09:34:05;;;;;;;2.45;1.70;;;;;;;;;;1739664;82;21056;-70
2022/09/23 09:36:43;;;;;;;3.35;2.30;;;;;;;;;;1736006;82;21033;-70
2022/09/23 09:39:12;;;;;;;3.50;2.70;;;;;;;;;;1724011;82;21041;-70
2022/09/23 09:41:40;;;;;;;5.58;2.62;;;;;;;;;;1723428;82;21045;-70
2022/09/23 09:44:09;;;;;;;3.95;2.65;;;;;;;;;;1723669;82;21037;-69
2022/09/23 09:46:43;;;;;;;4.03;2.52;;;;;;;;;;1724094;82;21052;-70
2022/09/23 09:49:10;;;;;;;3.20;2.20;;;;;;;;;;1728720;82;21492;-70
2022/09/23 09:51:40;;;;;;;4.75;2.33;;;;;;;;;;1723647;82;21283;-69
2022/09/23 09:54:16;;;;;;;4.45;2.67;;;;;;;;;;1723696;82;21049;-71
2022/09/23 09:56:43;;;;;;;5.37;2.80;;;;;;;;;;1726147;82;20950;-70
2022/09/23 09:59:11;;;;;;;4.47;3.00;;;;;;;;;;1722978;82;21469;-70
2022/09/23 10:01:38;;;;;;;5.85;3.40;;;;;;;;;;1723551;82;21580;-70
2022/09/23 10:04:05;;;;;;;5.20;2.35;;;;;;;;;;1725785;82;21597;-70
2022/09/23 10:06:32;;;;;;;4.50;3.12;;;;;;;;;;1723495;82;20993;-70
2022/09/23 10:09:00;;;;;;;5.05;3.08;;;;;;;;;;1723666;82;21010;-70
2022/09/23 10:11:27;;;;;;;5.37;3.15;;;;;;;;;;1726131;82;21036;-71
2022/09/23 10:14:01;;;;;;;5.05;2.85;;;;;;;;;;1721972;82;21119;-70
2022/09/23 10:16:30;;;;;;;4.20;2.40;;;;;;;;;;1722862;82;21017;-70
2022/09/23 10:18:56;;;;;;;3.55;2.60;;;;;;;;;;1723208;82;21033;-71
2022/09/23 10:21:23;;;;;;;3.45;2.15;;;;;;;;;;1727640;82;21009;-70
2022/09/23 10:23:56;;;;;;;4.65;2.50;;;;;;;;;;1726062;82;21029;-70
2022/09/23 10:26:26;;;;;;;4.95;2.62;;;;;;;;;;1725148;82;21496;-71
2022/09/23 10:28:54;;;;;;;3.27;2.25;;;;;;;;;;1725962;82;21048;-70
2022/09/23 10:31:25;;;;;;;3.17;2.10;;;;;;;;;;1725021;82;20994;-70
2022/09/23 10:34:00;;;;;;;4.60;2.30;;;;;;;;;;1721556;82;21048;-71
2022/09/23 10:36:24;;;;;;;3.15;2.08;;;;;;;;;;1722500;82;21093;-70
2022/09/23 10:38:51;;;;;;;3.87;2.33;;;;;;;;;;1729151;81;21036;-70
2022/09/23 10:46:57;;;;;;;3.08;2.00;;;;;;;;;;1713477;82;21520;-71
2022/09/23 10:49:31;;;;;;;1.92;1.60;;;;;;;;;;1725885;82;21052;-70
2022/09/23 10:52:06;;;;;;;2.37;1.67;;;;;;;;;;1724490;82;21064;-70
2022/09/23 10:54:34;;;;;;;2.72;1.95;;;;;;;;;;1723331;82;21045;-71
2022/09/23 10:57:36;;;;;;;2.35;1.82;;;;;;;;;;1724177;82;21540;-70
2022/09/23 10:59:34;;;;;;;2.67;2.00;;;;;;;;;;1722810;82;21046;-71
2022/09/23 11:02:19;;;;;;;2.42;1.82;;;;;;;;;;1720862;82;21136;-70
2022/09/23 11:05:03;;;;;;;4.45;2.60;;;;;;;;;;1735580;82;21029;-71
2022/09/23 11:07:34;;;;;;;3.42;2.37;;;;;;;;;;1710797;82;21029;-70
2022/09/23 11:10:04;;;;;;;4.30;2.15;;;;;;;;;;1735126;82;21037;-70
2022/09/23 11:12:46;;;;;;;2.80;2.05;;;;;;;;;;1731042;82;21520;-70
2022/09/23 11:15:15;;;;;;;4.20;2.17;;;;;;;;;;1727186;82;21001;-69
2022/09/23 11:17:43;;;;;;;2.70;1.95;;;;;;;;;;1726779;82;21060;-70
2022/09/23 11:20:11;;;;;;;3.27;2.00;;;;;;;;;;1661219;82;21025;-70
2022/09/23 11:22:48;;;;;;;3.22;2.10;;;;;;;;;;1724163;82;21025;-70
2022/09/23 11:25:26;;;;;;;3.40;2.10;;;;;;;;;;1723611;82;21041;-70
2022/09/23 11:27:58;;;;;;;2.22;1.87;;;;;;;;;;1684222;84;21064;-70
2022/09/23 11:30:27;;;;;;;2.72;2.10;;;;;;;;;;1683815;84;21100;-70
2022/09/23 11:33:12;;;;;;;2.77;1.95;;;;;;;;;;1686024;84;21079;-70
2022/09/23 11:35:48;;;;;;;2.60;2.00;;;;;;;;;;1654506;84;21643;-70
2022/09/23 11:38:17;;;;;;;2.50;1.80;;;;;;;;;;1684421;84;21080;-71
2022/09/23 11:40:44;;;;;;;2.80;2.10;;;;;;;;;;1695247;83;21572;-71
2022/09/23 11:43:16;;;;;;;3.30;2.22;;;;;;;;;;1695204;84;21762;-70
2022/09/23 11:46:01;;;;;;;3.42;2.10;;;;;;;;;;1692299;84;20989;-70
2022/09/23 11:48:33;;;;;;;5.00;2.65;;;;;;;;;;1686623;84;21089;-70
2022/09/23 11:51:01;;;;;;;3.12;2.40;;;;;;;;;;1685534;84;21079;-71
2022/09/23 11:53:29;;;;;;;3.83;2.33;;;;;;;;;;1679163;84;21080;-70
2022/09/23 11:55:58;;;;;;;3.17;2.17;;;;;;;;;;1684774;84;21068;-70
2022/09/23 11:58:26;;;;;;;3.33;2.00;;;;;;;;;;1685968;84;21549;-70
2022/09/23 12:01:05;;;;;;;3.45;2.25;;;;;;;;;;1668871;85;21121;-70
2022/09/23 12:03:33;;;;;;;3.42;2.45;;;;;;;;;;1669195;85;21096;-70
2022/09/23 12:06:02;;;;;;;3.12;2.33;;;;;;;;;;1670299;85;21608;-71
2022/09/23 12:08:31;;;;;;;2.37;1.70;;;;;;;;;;1671717;85;21065;-71
2022/09/23 12:11:00;;;;;;;2.85;2.00;;;;;;;;;;1670388;85;21121;-70
2022/09/23 12:13:45;;;;;;;3.50;2.10;;;;;;;;;;1668991;85;21128;-70
2022/09/23 12:16:31;;;;;;;3.27;2.10;;;;;;;;;;1669090;85;21303;-70
2022/09/23 12:18:59;;;;;;;2.60;2.02;;;;;;;;;;1670232;85;21121;-70
2022/09/23 12:21:37;;;;;;;3.50;2.17;;;;;;;;;;1669149;85;21761;-69
2022/09/23 12:24:09;;;;;;;2.92;2.08;;;;;;;;;;1671235;85;21045;-70
2022/09/23 12:26:37;;;;;;;3.65;2.17;;;;;;;;;;1659213;85;21125;-72
2022/09/23 12:29:03;;;;;;;2.75;2.00;;;;;;;;;;1669799;85;21675;-70
2022/09/23 12:31:30;;;;;;;2.65;2.20;;;;;;;;;;1671954;85;21053;-71
2022/09/23 12:33:59;;;;;;;3.45;2.00;;;;;;;;;;1669989;85;21037;-70
2022/09/23 12:36:35;;;;;;;2.22;1.80;;;;;;;;;;1668244;85;21509;-70
2022/09/23 12:39:16;;;;;;;3.40;2.20;;;;;;;;;;1671136;85;21073;-69
2022/09/23 12:41:43;;;;;;;3.80;2.25;;;;;;;;;;1670986;85;21093;-69
2022/09/23 12:44:12;;;;;;;3.10;2.20;;;;;;;;;;1669118;85;21050;-70
2022/09/23 12:46:40;;;;;;;3.50;2.10;;;;;;;;;;1670489;85;21100;-70
2022/09/23 12:49:22;;;;;;;3.12;2.10;;;;;;;;;;1672027;85;21108;-70
2022/09/23 12:52:07;;;;;;;2.58;1.95;;;;;;;;;;1671927;85;21554;-70
2022/09/23 12:54:34;;;;;;;4.00;1.98;;;;;;;;;;1669438;85;21117;-70
2022/09/23 12:57:01;;;;;;;2.17;1.82;;;;;;;;;;1670221;85;21073;-70
2022/09/23 12:59:29;;;;;;;3.25;2.20;;;;;;;;;;1671840;85;21053;-71
2022/09/23 13:01:56;;;;;;;3.75;2.27;;;;;;;;;;1669529;84;21169;-70
2022/09/23 13:07:22;;;;;;;3.05;1.72;;;;;;;;;;1671110;85;21561;-71
2022/09/23 13:09:49;;;;;;;2.25;1.82;;;;;;;;;;1669200;85;21022;-72
2022/09/23 13:12:17;;;;;;;3.67;1.80;;;;;;;;;;1671604;85;21045;-70
2022/09/23 13:14:45;;;;;;;3.08;2.00;;;;;;;;;;1671358;85;21090;-70
2022/09/23 13:17:25;;;;;;;2.92;2.08;;;;;;;;;;1669322;85;21556;-70
2022/09/23 13:19:59;;;;;;;2.75;2.00;;;;;;;;;;1669269;85;21090;-71
2022/09/23 13:22:40;;;;;;;3.27;2.22;;;;;;;;;;1630731;85;21104;-70
2022/09/23 13:25:08;;;;;;;3.33;1.90;;;;;;;;;;1672272;85;21070;-69
2022/09/23 13:27:36;;;;;;;2.45;1.80;;;;;;;;;;1669804;85;21080;-70
2022/09/23 13:30:03;;;;;;;2.75;2.17;;;;;;;;;;1672026;85;21072;-69
2022/09/23 13:32:31;;;;;;;4.50;2.95;;;;;;;;;;1721855;82;21537;-70
2022/09/23 13:35:03;;;;;;;3.83;2.67;;;;;;;;;;1724195;82;21095;-70
2022/09/23 13:37:30;;;;;;;4.10;2.42;;;;;;;;;;1721978;82;21026;-71
2022/09/23 13:40:08;;;;;;;4.75;2.30;;;;;;;;;;1725421;82;21533;-72
2022/09/23 13:42:35;;;;;;;4.08;2.70;;;;;;;;;;1734641;82;21093;-71
2022/09/23 13:45:01;;;;;;;3.08;2.52;;;;;;;;;;1705837;83;21017;-70
2022/09/23 13:47:28;;;;;;;3.50;2.40;;;;;;;;;;1715713;82;21043;-70
2022/09/23 13:49:55;;;;;;;3.83;2.60;;;;;;;;;;1728399;82;21034;-70
2022/09/23 13:52:23;;;;;;;2.85;2.15;;;;;;;;;;1728303;82;21173;-69
2022/09/23 13:54:49;;;;;;;3.47;2.30;;;;;;;;;;1717516;82;20999;-69
2022/09/23 13:57:28;;;;;;;4.67;2.60;;;;;;;;;;1725011;82;21540;-69
2022/09/23 13:59:56;;;;;;;4.78;2.60;;;;;;;;;;1718756;82;21009;-70
2022/09/23 14:02:27;;;;;;;3.80;2.60;;;;;;;;;;1729603;82;21085;-70
2022/09/23 14:04:57;;;;;;;3.67;2.22;;;;;;;;;;1725817;82;21049;-70
2022/09/23 14:07:23;;;;;;;2.80;2.08;;;;;;;;;;1725785;82;20946;-70
2022/09/23 14:09:51;;;;;;;3.55;2.08;;;;;;;;;;1725796;82;21477;-71
2022/09/23 14:12:21;;;;;;;3.92;2.25;;;;;;;;;;1724116;82;21029;-70
2022/09/23 14:14:46;;;;;;;2.77;2.10;;;;;;;;;;1722981;82;21579;-71
2022/09/23 14:17:13;;;;;;;3.02;1.90;;;;;;;;;;1726189;82;21535;-70
2022/09/23 14:19:40;;;;;;;3.27;2.10;;;;;;;;;;1724097;82;21049;-71
2022/09/23 14:22:08;;;;;;;2.60;2.00;;;;;;;;;;1702595;82;21021;-70
2022/09/23 14:24:35;;;;;;;2.83;2.00;;;;;;;;;;1723744;82;21049;-70
2022/09/23 14:27:03;;;;;;;3.40;2.10;;;;;;;;;;1724748;82;21496;-70
2022/09/23 14:29:30;;;;;;;4.42;2.10;;;;;;;;;;1722810;82;21029;-70
2022/09/23 14:32:02;;;;;;;2.17;1.82;;;;;;;;;;1725298;82;21168;-69
2022/09/23 14:34:46;;;;;;;2.00;1.70;;;;;;;;;;1726049;82;21041;-70
2022/09/23 14:40:10;;;;;;;2.98;1.90;;;;;;;;;;1732602;82;21010;-71
2022/09/23 14:42:37;;;;;;;3.30;2.30;;;;;;;;;;1736044;82;21020;-70
2022/09/23 14:45:04;;;;;;;3.80;2.42;;;;;;;;;;1739379;82;21575;-70
2022/09/23 14:47:31;;;;;;;3.85;2.50;;;;;;;;;;1739672;82;20982;-70
2022/09/23 14:52:49;;;;;;;3.30;2.30;;;;;;;;;;1738456;82;21060;-70
2022/09/23 14:55:16;;;;;;;2.87;2.00;;;;;;;;;;1737095;82;21044;-69
2022/09/23 14:57:42;;;;;;;3.17;1.95;;;;;;;;;;1739415;81;21040;-69
2022/09/23 15:00:13;;;;;;;3.20;2.20;;;;;;;;;;1738108;81;21103;-69
2022/09/23 15:02:44;;;;;;;3.67;2.42;;;;;;;;;;1737300;82;21153;-70
2022/09/23 15:05:21;;;;;;;4.92;2.50;;;;;;;;;;1737725;82;21020;-70
2022/09/23 15:07:50;;;;;;;4.40;2.67;;;;;;;;;;1741845;82;21411;-71
2022/09/23 15:10:22;;;;;;;3.37;2.33;;;;;;;;;;1737354;82;21631;-70
2022/09/23 15:12:49;;;;;;;6.62;2.90;;;;;;;;;;1740748;82;21095;-69
2022/09/23 15:15:17;;;;;;;4.30;2.67;;;;;;;;;;1736295;82;21476;-70